createdAt,value
2023-02-17T00:01:22.911Z,18.47
2023-02-17T00:03:50.834Z,18.53
2023-02-17T00:06:20.159Z,18.50
2023-02-17T00:08:47.300Z,17.90
2023-02-17T00:11:14.624Z,18.30
2023-02-17T00:13:42.284Z,16.83
2023-02-17T00:16:11.020Z,15.73
2023-02-17T00:18:37.712Z,16.73
2023-02-17T00:21:19.410Z,16.80
2023-02-17T00:23:47.728Z,15.70
2023-02-17T00:26:15.696Z,15.07
2023-02-17T00:28:42.462Z,14.67
2023-02-17T00:31:11.277Z,15.93
2023-02-17T00:33:37.864Z,15.53
2023-02-17T00:36:10.389Z,15.70
2023-02-17T00:38:37.428Z,14.77
2023-02-17T00:41:04.271Z,16.77
2023-02-17T00:43:30.863Z,16.30
2023-02-17T00:45:57.424Z,15.40
2023-02-17T00:48:24.240Z,15.63
2023-02-17T00:50:50.971Z,16.90
2023-02-17T00:53:17.521Z,16.60
2023-02-17T00:55:44.067Z,16.60
2023-02-17T00:58:10.676Z,17.20
2023-02-17T01:00:37.441Z,19.20
2023-02-17T01:03:04.322Z,17.90
2023-02-17T01:05:31.098Z,20.00
2023-02-17T01:07:57.760Z,23.03
2023-02-17T01:10:24.477Z,24.03
2023-02-17T01:12:51.161Z,23.77
2023-02-17T01:15:17.771Z,25.07
2023-02-17T01:17:44.378Z,25.60
2023-02-17T01:20:11.133Z,23.37
2023-02-17T01:22:39.635Z,23.07
2023-02-17T01:25:06.580Z,21.80
2023-02-17T01:27:33.386Z,22.93
2023-02-17T01:29:59.993Z,22.10
2023-02-17T01:32:26.647Z,21.30
2023-02-17T01:34:53.189Z,20.60
2023-02-17T01:37:20.105Z,22.57
2023-02-17T01:39:46.671Z,21.67
2023-02-17T01:42:17.674Z,22.03
2023-02-17T01:45:31.323Z,23.00
2023-02-17T01:48:12.482Z,21.73
2023-02-17T01:50:52.515Z,23.73
2023-02-17T01:53:24.730Z,21.40
2023-02-17T01:55:52.514Z,22.30
2023-02-17T01:58:20.765Z,22.37
2023-02-17T02:00:49.764Z,22.30
2023-02-17T02:03:16.555Z,23.33
2023-02-17T02:05:43.596Z,22.63
2023-02-17T02:08:12.046Z,23.17
2023-02-17T02:10:38.693Z,23.60
2023-02-17T02:13:05.885Z,21.73
2023-02-17T02:15:52.160Z,24.00
2023-02-17T02:18:45.969Z,22.20
2023-02-17T02:21:51.264Z,23.67
2023-02-17T02:24:27.151Z,23.97
2023-02-17T02:27:23.611Z,22.43
2023-02-17T02:30:23.494Z,23.80
2023-02-17T02:32:56.900Z,22.97
2023-02-17T02:35:39.892Z,24.63
2023-02-17T02:38:16.272Z,23.67
2023-02-17T02:40:51.424Z,22.47
2023-02-17T02:43:18.819Z,21.40
2023-02-17T02:45:45.430Z,23.17
2023-02-17T02:48:12.150Z,20.30
2023-02-17T02:51:07.798Z,19.90
2023-02-17T02:53:56.913Z,19.23
2023-02-17T02:56:41.904Z,20.00
2023-02-17T02:59:42.323Z,18.80
2023-02-17T03:02:32.886Z,21.13
2023-02-17T03:05:15.916Z,20.33
2023-02-17T03:07:56.225Z,19.90
2023-02-17T03:10:22.893Z,21.10
2023-02-17T03:12:49.811Z,17.93
2023-02-17T03:15:24.773Z,18.40
2023-02-17T03:17:51.367Z,17.27
2023-02-17T03:20:18.242Z,17.00
2023-02-17T03:22:47.342Z,15.07
2023-02-17T03:25:15.142Z,14.97
2023-02-17T03:27:41.806Z,13.30
2023-02-17T03:30:09.892Z,13.07
2023-02-17T03:32:36.637Z,11.50
2023-02-17T03:35:03.659Z,11.00
2023-02-17T03:37:30.272Z,11.43
2023-02-17T03:39:56.813Z,11.63
2023-02-17T03:42:23.520Z,11.70
2023-02-17T03:44:50.060Z,11.40
2023-02-17T03:47:16.633Z,11.20
2023-02-17T03:49:43.178Z,11.10
2023-02-17T03:52:10.544Z,9.87
2023-02-17T03:54:37.163Z,9.40
2023-02-17T03:57:03.864Z,10.50
2023-02-17T03:59:30.543Z,9.60
2023-02-17T04:01:57.106Z,10.27
2023-02-17T04:04:23.822Z,8.63
2023-02-17T04:06:50.374Z,10.00
2023-02-17T04:09:17.017Z,8.20
2023-02-17T04:11:43.752Z,8.47
2023-02-17T04:14:10.344Z,7.70
2023-02-17T04:16:39.071Z,8.10
2023-02-17T04:19:07.222Z,8.50
2023-02-17T04:21:34.232Z,7.90
2023-02-17T04:24:01.910Z,9.33
2023-02-17T04:26:29.355Z,9.20
2023-02-17T04:28:56.344Z,9.80
2023-02-17T04:31:23.154Z,10.87
2023-02-17T04:33:49.756Z,12.20
2023-02-17T04:36:16.330Z,12.13
2023-02-17T04:38:42.978Z,12.20
2023-02-17T04:41:09.544Z,12.47
2023-02-17T04:43:36.144Z,13.83
2023-02-17T04:46:03.034Z,13.27
2023-02-17T04:48:29.692Z,12.30
2023-02-17T04:50:56.353Z,9.77
2023-02-17T04:53:23.070Z,10.33
2023-02-17T04:55:51.537Z,10.20
2023-02-17T04:58:18.885Z,8.40
2023-02-17T05:00:47.899Z,8.33
2023-02-17T05:03:14.471Z,8.00
2023-02-17T05:05:41.148Z,9.27
2023-02-17T05:08:08.436Z,8.30
2023-02-17T05:10:35.116Z,9.20
2023-02-17T05:13:01.684Z,9.50
2023-02-17T05:15:28.213Z,11.63
2023-02-17T05:17:55.074Z,12.40
2023-02-17T05:20:21.776Z,11.80
2023-02-17T05:22:48.475Z,12.43
2023-02-17T05:25:15.148Z,11.53
2023-02-17T05:27:41.730Z,11.83
2023-02-17T05:30:08.707Z,11.27
2023-02-17T05:32:35.325Z,10.70
2023-02-17T05:35:01.870Z,8.50
2023-02-17T05:37:28.460Z,7.90
2023-02-17T05:39:55.003Z,8.50
2023-02-17T05:42:21.651Z,8.90
2023-02-17T05:44:48.284Z,9.33
2023-02-17T05:47:14.911Z,12.00
2023-02-17T05:49:41.500Z,10.93
2023-02-17T05:52:08.067Z,12.97
2023-02-17T05:54:34.620Z,11.93
2023-02-17T05:57:01.206Z,11.90
2023-02-17T05:59:27.879Z,12.37
2023-02-17T06:01:54.457Z,12.30
2023-02-17T06:04:21.108Z,12.57
2023-02-17T06:06:47.662Z,12.33
2023-02-17T06:09:14.270Z,10.77
2023-02-17T06:11:41.001Z,11.47
2023-02-17T06:14:07.559Z,10.17
2023-02-17T06:16:34.132Z,11.27
2023-02-17T06:19:02.199Z,10.60
2023-02-17T06:21:29.059Z,10.77
2023-02-17T06:23:55.610Z,11.23
2023-02-17T06:26:22.327Z,12.30
2023-02-17T06:28:48.991Z,12.90
2023-02-17T06:31:15.662Z,15.67
2023-02-17T06:33:42.673Z,15.50
2023-02-17T06:36:09.480Z,14.17
2023-02-17T06:38:36.236Z,13.77
2023-02-17T06:41:02.850Z,13.17
2023-02-17T06:43:29.411Z,14.60
2023-02-17T06:45:56.092Z,13.10
2023-02-17T06:48:22.698Z,13.80
2023-02-17T06:50:49.887Z,12.77
2023-02-17T06:53:16.471Z,10.70
2023-02-17T06:55:44.759Z,11.03
2023-02-17T06:58:11.342Z,11.87
2023-02-17T07:00:38.078Z,11.90
2023-02-17T07:03:04.769Z,13.07
2023-02-17T07:05:31.443Z,15.23
2023-02-17T07:07:58.666Z,15.00
2023-02-17T07:10:25.250Z,12.87
2023-02-17T07:12:51.958Z,13.90
2023-02-17T07:15:18.642Z,14.47
2023-02-17T07:17:45.270Z,12.90
2023-02-17T07:20:12.580Z,14.40
2023-02-17T07:22:39.469Z,16.40
2023-02-17T07:25:07.002Z,14.47
2023-02-17T07:27:36.216Z,14.70
2023-02-17T07:30:03.278Z,16.60
2023-02-17T07:32:29.984Z,16.50
2023-02-17T07:34:56.534Z,17.00
2023-02-17T07:37:23.209Z,17.23
2023-02-17T07:39:49.815Z,15.83
2023-02-17T07:42:16.412Z,17.60
2023-02-17T07:44:42.991Z,17.57
2023-02-17T07:47:09.585Z,17.27
2023-02-17T07:49:36.265Z,16.37
2023-02-17T07:52:05.097Z,17.50
2023-02-17T07:54:32.012Z,18.60
2023-02-17T07:56:58.615Z,18.37
2023-02-17T07:59:25.194Z,18.17
2023-02-17T08:01:51.952Z,19.53
2023-02-17T08:04:18.623Z,19.43
2023-02-17T08:06:45.206Z,21.67
2023-02-17T08:09:30.645Z,21.40
2023-02-17T08:12:15.995Z,20.70
2023-02-17T08:14:42.621Z,21.67
2023-02-17T08:17:09.198Z,21.57
2023-02-17T08:19:47.463Z,20.73
2023-02-17T08:22:14.610Z,20.50
2023-02-17T08:24:41.171Z,21.10
2023-02-17T08:27:07.799Z,20.40
2023-02-17T08:29:34.371Z,19.60
2023-02-17T08:32:01.225Z,21.90
2023-02-17T08:34:28.537Z,21.73
2023-02-17T08:36:55.092Z,21.60
2023-02-17T08:39:21.737Z,21.80
2023-02-17T08:41:48.355Z,19.47
2023-02-17T08:44:18.547Z,18.47
2023-02-17T08:46:48.012Z,20.47
2023-02-17T08:49:16.975Z,21.27
2023-02-17T08:51:44.393Z,17.63
2023-02-17T08:54:11.950Z,16.80
2023-02-17T08:56:39.986Z,16.50
2023-02-17T08:59:08.608Z,17.00
2023-02-17T09:01:36.367Z,15.30
2023-02-17T09:04:05.533Z,14.60
2023-02-17T09:06:37.569Z,15.43
2023-02-17T09:09:06.407Z,14.90
2023-02-17T09:11:33.103Z,15.73
2023-02-17T09:13:59.676Z,14.20
2023-02-17T09:16:26.480Z,14.17
2023-02-17T09:18:54.018Z,15.43
2023-02-17T09:21:23.799Z,13.30
2023-02-17T09:23:50.841Z,13.73
2023-02-17T09:26:18.964Z,13.40
2023-02-17T09:28:46.217Z,12.80
2023-02-17T09:31:16.403Z,11.10
2023-02-17T09:33:43.401Z,11.13
2023-02-17T09:36:12.831Z,11.53
2023-02-17T09:38:40.278Z,11.40
2023-02-17T09:41:16.847Z,10.73
2023-02-17T09:43:44.416Z,8.97
2023-02-17T09:46:28.960Z,9.60
2023-02-17T09:49:08.723Z,9.30
2023-02-17T09:52:05.677Z,8.83
2023-02-17T09:54:49.526Z,8.47
2023-02-17T09:57:20.670Z,8.23
2023-02-17T09:59:55.711Z,7.23
2023-02-17T10:02:39.188Z,6.93
2023-02-17T10:05:09.179Z,5.50
2023-02-17T10:07:46.175Z,5.93
2023-02-17T10:10:31.547Z,5.97
2023-02-17T10:13:02.019Z,5.40
2023-02-17T10:15:35.565Z,5.43
2023-02-17T10:18:11.679Z,4.73
2023-02-17T10:20:59.771Z,5.10
2023-02-17T10:23:28.928Z,5.10
2023-02-17T10:26:24.449Z,4.80
2023-02-17T10:28:52.457Z,4.13
2023-02-17T10:31:45.022Z,5.43
2023-02-17T10:34:31.038Z,4.80
2023-02-17T10:37:02.142Z,4.13
2023-02-17T10:39:50.314Z,4.27
2023-02-17T10:42:32.279Z,4.80
2023-02-17T10:45:07.666Z,4.90
2023-02-17T10:47:38.532Z,5.33
2023-02-17T10:50:14.298Z,4.47
2023-02-17T10:52:41.902Z,3.90
2023-02-17T10:55:40.799Z,4.83
2023-02-17T10:58:17.797Z,4.03
2023-02-17T11:00:47.375Z,5.10
2023-02-17T11:03:21.677Z,4.87
2023-02-17T11:06:24.214Z,4.33
2023-02-17T11:09:04.860Z,4.20
2023-02-17T11:11:37.107Z,4.03
2023-02-17T11:14:20.551Z,4.60
2023-02-17T11:16:52.448Z,4.30
2023-02-17T11:19:33.674Z,4.17
2023-02-17T11:22:02.156Z,3.83
2023-02-17T11:24:30.919Z,3.80
2023-02-17T11:27:08.513Z,3.93
2023-02-17T11:29:35.236Z,3.80
2023-02-17T11:32:07.056Z,4.20
2023-02-17T11:34:36.147Z,4.23
2023-02-17T11:37:22.142Z,4.07
2023-02-17T11:39:53.810Z,3.77
2023-02-17T11:42:29.465Z,4.17
2023-02-17T11:44:59.137Z,3.60
2023-02-17T11:47:53.226Z,3.57
2023-02-17T11:50:42.053Z,3.67
2023-02-17T11:53:59.476Z,3.60
2023-02-17T11:56:37.608Z,4.20
2023-02-17T11:59:10.854Z,3.60
2023-02-17T12:02:11.179Z,4.47
2023-02-17T12:05:03.508Z,4.03
2023-02-17T12:07:58.137Z,3.73
2023-02-17T12:11:02.677Z,3.30
2023-02-17T12:13:49.845Z,3.60
2023-02-17T12:16:24.983Z,2.93
2023-02-17T12:19:28.821Z,3.10
2023-02-17T12:22:01.955Z,3.07
2023-02-17T12:24:44.549Z,3.37
2023-02-17T12:27:48.510Z,3.60
2023-02-17T12:30:46.058Z,3.43
2023-02-17T12:33:41.080Z,3.47
2023-02-17T12:36:21.238Z,3.80
2023-02-17T12:39:16.240Z,3.10
2023-02-17T12:42:24.781Z,3.77
2023-02-17T12:44:56.992Z,3.33
2023-02-17T12:47:35.226Z,3.87
2023-02-17T12:50:06.525Z,3.43
2023-02-17T12:52:39.039Z,3.30
2023-02-17T12:55:19.853Z,3.60
2023-02-17T12:57:58.399Z,3.50
2023-02-17T13:00:38.302Z,4.07
2023-02-17T13:03:06.061Z,3.73
2023-02-17T13:05:51.972Z,3.30
2023-02-17T13:08:27.749Z,3.87
2023-02-17T13:11:04.034Z,3.67
2023-02-17T13:13:34.061Z,4.10
2023-02-17T13:16:12.852Z,4.07
2023-02-17T13:18:50.306Z,4.00
2023-02-17T13:21:30.303Z,4.03
2023-02-17T13:24:02.763Z,3.47
2023-02-17T13:26:32.636Z,4.20
2023-02-17T13:29:19.672Z,3.63
2023-02-17T13:31:55.686Z,3.90
2023-02-17T13:34:26.490Z,3.60
2023-02-17T13:36:53.215Z,3.50
2023-02-17T13:39:28.638Z,3.87
2023-02-17T13:42:00.123Z,3.47
2023-02-17T13:44:40.348Z,3.60
2023-02-17T13:47:21.950Z,3.30
2023-02-17T13:49:54.288Z,3.77
2023-02-17T13:52:27.139Z,3.27
2023-02-17T13:55:05.957Z,3.90
2023-02-17T13:57:36.896Z,3.60
2023-02-17T14:00:19.389Z,3.63
2023-02-17T14:02:49.638Z,3.73
2023-02-17T14:05:19.874Z,4.43
2023-02-17T14:07:48.339Z,4.60
2023-02-17T14:10:25.154Z,4.13
2023-02-17T14:12:52.856Z,4.60
2023-02-17T14:15:22.496Z,5.13
2023-02-17T14:17:49.281Z,5.00
2023-02-17T14:20:34.182Z,5.10
2023-02-17T14:23:04.124Z,5.27
2023-02-17T14:25:33.929Z,5.43
2023-02-17T14:28:00.609Z,5.53
2023-02-17T14:30:47.886Z,6.00
2023-02-17T14:33:17.820Z,6.60
2023-02-17T14:35:59.848Z,7.50
2023-02-17T14:38:37.238Z,6.50
2023-02-17T14:41:05.635Z,6.97
2023-02-17T14:43:32.980Z,7.30
2023-02-17T14:45:59.689Z,7.20
2023-02-17T14:48:27.901Z,8.90
2023-02-17T14:50:57.073Z,8.97
2023-02-17T14:53:36.518Z,8.57
2023-02-17T14:56:06.391Z,10.00
2023-02-17T14:58:33.490Z,9.80
2023-02-17T15:01:00.855Z,10.03
2023-02-17T15:03:27.501Z,9.90
2023-02-17T15:05:54.588Z,9.80
2023-02-17T15:08:27.782Z,8.83
2023-02-17T15:10:55.020Z,9.13
2023-02-17T15:13:24.843Z,9.20
2023-02-17T15:15:51.542Z,9.40
2023-02-17T15:18:20.040Z,8.80
2023-02-17T15:20:51.692Z,9.43
2023-02-17T15:23:22.947Z,9.83
2023-02-17T15:25:49.885Z,9.87
2023-02-17T15:28:19.295Z,9.53
2023-02-17T15:30:52.920Z,9.70
2023-02-17T15:33:20.855Z,9.13
2023-02-17T15:35:50.987Z,9.57
2023-02-17T15:38:17.617Z,8.83
2023-02-17T15:40:44.250Z,9.00
2023-02-17T15:43:17.669Z,7.83
2023-02-17T15:45:44.295Z,9.40
2023-02-17T15:48:26.344Z,7.30
2023-02-17T15:50:53.730Z,8.07
2023-02-17T15:53:20.347Z,7.60
2023-02-17T15:55:47.716Z,9.13
2023-02-17T15:58:20.495Z,8.03
2023-02-17T16:00:48.530Z,8.63
2023-02-17T16:03:16.144Z,8.80
2023-02-17T16:05:42.990Z,7.70
2023-02-17T16:08:09.606Z,7.57
2023-02-17T16:10:36.850Z,8.37
2023-02-17T16:13:04.063Z,7.70
2023-02-17T16:15:32.671Z,8.50
2023-02-17T16:17:59.831Z,8.87
2023-02-17T16:20:29.805Z,9.03
2023-02-17T16:22:56.435Z,7.60
2023-02-17T16:25:23.259Z,7.07
2023-02-17T16:27:51.773Z,7.60
2023-02-17T16:30:23.500Z,8.00
2023-02-17T16:32:50.680Z,7.53
2023-02-17T16:35:23.184Z,7.23
2023-02-17T16:38:05.014Z,6.90
2023-02-17T16:40:34.276Z,7.70
2023-02-17T16:43:00.847Z,6.37
2023-02-17T16:45:30.640Z,6.80
2023-02-17T16:47:59.541Z,7.53
2023-02-17T16:50:29.758Z,6.50
2023-02-17T16:52:58.864Z,7.30
2023-02-17T16:55:28.539Z,6.50
2023-02-17T16:57:55.257Z,6.47
2023-02-17T17:00:25.334Z,6.63
2023-02-17T17:02:52.026Z,7.43
2023-02-17T17:05:20.156Z,6.67
2023-02-17T17:07:47.305Z,6.50
2023-02-17T17:10:20.210Z,6.93
2023-02-17T17:12:47.294Z,6.70
2023-02-17T17:15:16.245Z,5.80
2023-02-17T17:17:45.606Z,6.20
2023-02-17T17:20:15.426Z,7.27
2023-02-17T17:22:42.318Z,7.10
2023-02-17T17:25:09.644Z,7.20
2023-02-17T17:27:36.977Z,7.00
2023-02-17T17:30:05.699Z,7.00
2023-02-17T17:32:32.672Z,6.67
2023-02-17T17:34:59.268Z,6.80
2023-02-17T17:37:26.090Z,6.33
2023-02-17T17:39:52.761Z,6.87
2023-02-17T17:42:19.414Z,6.53
2023-02-17T17:44:45.980Z,6.30
2023-02-17T17:47:24.776Z,7.00
2023-02-17T17:49:55.789Z,6.40
2023-02-17T17:52:22.427Z,7.50
2023-02-17T17:54:49.019Z,7.33
2023-02-17T17:57:15.608Z,6.90
2023-02-17T17:59:42.157Z,7.60
2023-02-17T18:02:08.763Z,6.83
2023-02-17T18:04:35.434Z,6.80
2023-02-17T18:07:02.170Z,7.47
2023-02-17T18:09:35.112Z,7.47
2023-02-17T18:12:11.000Z,6.70
2023-02-17T18:14:39.885Z,8.10
2023-02-17T18:17:08.085Z,7.00
2023-02-17T18:19:34.730Z,8.20
2023-02-17T18:22:01.365Z,8.00
2023-02-17T18:24:28.098Z,8.47
2023-02-17T18:26:54.680Z,7.03
2023-02-17T18:29:21.909Z,7.90
2023-02-17T18:31:48.629Z,8.03
2023-02-17T18:34:15.308Z,8.30
2023-02-17T18:36:41.903Z,8.43
2023-02-17T18:39:08.568Z,8.20
2023-02-17T18:41:35.455Z,8.37
2023-02-17T18:44:03.650Z,8.00
2023-02-17T18:46:33.038Z,7.63
2023-02-17T18:49:00.380Z,8.13
2023-02-17T18:51:27.589Z,8.40
2023-02-17T18:53:58.579Z,8.27
2023-02-17T18:56:28.181Z,8.63
2023-02-17T18:58:55.783Z,9.40
2023-02-17T19:01:32.083Z,8.60
2023-02-17T19:03:59.196Z,8.90
2023-02-17T19:06:28.742Z,8.73
2023-02-17T19:08:55.574Z,9.13
2023-02-17T19:11:23.820Z,8.50
2023-02-17T19:13:51.584Z,9.40
2023-02-17T19:16:22.606Z,10.07
2023-02-17T19:18:49.458Z,9.40
2023-02-17T19:21:16.135Z,9.73
2023-02-17T19:23:42.770Z,10.00
2023-02-17T19:26:10.692Z,10.50
2023-02-17T19:28:38.798Z,9.67
2023-02-17T19:31:11.124Z,9.23
2023-02-17T19:33:38.287Z,11.30
2023-02-17T19:36:16.226Z,10.60
2023-02-17T19:38:43.311Z,10.93
2023-02-17T19:41:11.093Z,11.10
2023-02-17T19:43:37.881Z,10.10
2023-02-17T19:46:04.966Z,11.70
2023-02-17T19:48:31.955Z,11.90
2023-02-17T19:51:04.350Z,11.63
2023-02-17T19:53:31.478Z,14.27
2023-02-17T19:56:11.385Z,11.03
2023-02-17T19:58:38.793Z,11.40
2023-02-17T20:01:07.592Z,10.97
2023-02-17T20:03:34.351Z,10.80
2023-02-17T20:06:08.974Z,10.03
2023-02-17T20:08:36.397Z,10.17
2023-02-17T20:11:10.486Z,10.20
2023-02-17T20:13:45.665Z,8.90
2023-02-17T20:16:15.119Z,8.60
2023-02-17T20:18:45.087Z,9.60
2023-02-17T20:21:15.950Z,9.37
2023-02-17T20:23:42.949Z,9.77
2023-02-17T20:26:15.884Z,9.07
2023-02-17T20:28:42.704Z,9.70
2023-02-17T20:31:10.207Z,8.93
2023-02-17T20:33:36.932Z,9.17
2023-02-17T20:36:05.740Z,9.87
2023-02-17T20:38:32.409Z,8.40
2023-02-17T20:41:00.393Z,8.30
2023-02-17T20:43:27.103Z,7.67
2023-02-17T20:45:53.915Z,6.67
2023-02-17T20:48:21.768Z,7.47
2023-02-17T20:50:48.889Z,7.27
2023-02-17T20:53:15.555Z,7.70
2023-02-17T20:55:42.076Z,7.70
2023-02-17T20:58:10.618Z,7.60
2023-02-17T21:00:37.315Z,6.70
2023-02-17T21:03:04.857Z,7.40
2023-02-17T21:05:32.418Z,8.00
2023-02-17T21:07:59.659Z,7.37
2023-02-17T21:10:28.863Z,7.23
2023-02-17T21:12:55.708Z,7.77
2023-02-17T21:15:22.813Z,8.00
2023-02-17T21:17:49.589Z,8.13
2023-02-17T21:20:19.345Z,8.83
2023-02-17T21:22:46.390Z,9.23
2023-02-17T21:25:13.014Z,10.10
2023-02-17T21:27:39.593Z,10.30
2023-02-17T21:30:07.625Z,10.13
2023-02-17T21:32:34.272Z,11.47
2023-02-17T21:35:01.023Z,12.80
2023-02-17T21:37:27.632Z,11.80
2023-02-17T21:39:54.268Z,13.07
2023-02-17T21:42:40.789Z,13.30
2023-02-17T21:45:07.747Z,13.83
2023-02-17T21:47:34.399Z,13.70
2023-02-17T21:50:01.035Z,15.00
2023-02-17T21:52:27.708Z,16.33
2023-02-17T21:54:54.324Z,14.27
2023-02-17T21:57:20.872Z,15.63
2023-02-17T21:59:47.443Z,17.13
2023-02-17T22:02:14.009Z,15.57
2023-02-17T22:04:40.616Z,16.17
2023-02-17T22:07:07.140Z,14.70
2023-02-17T22:09:33.688Z,15.50
2023-02-17T22:12:00.305Z,16.37
2023-02-17T22:14:26.856Z,14.97
2023-02-17T22:16:53.534Z,13.60
2023-02-17T22:19:22.567Z,14.47
2023-02-17T22:21:50.613Z,14.77
2023-02-17T22:24:20.494Z,12.67
2023-02-17T22:26:48.501Z,13.63
2023-02-17T22:29:15.236Z,12.17
2023-02-17T22:31:41.865Z,12.00
2023-02-17T22:34:12.263Z,12.47
2023-02-17T22:36:38.922Z,11.23
2023-02-17T22:39:07.661Z,9.97
2023-02-17T22:41:35.442Z,11.20
2023-02-17T22:44:02.944Z,10.53
2023-02-17T22:46:29.797Z,10.30
2023-02-17T22:48:57.748Z,10.83
2023-02-17T22:51:28.039Z,12.30
2023-02-17T22:53:55.072Z,12.17
2023-02-17T22:56:21.941Z,13.07
2023-02-17T22:58:53.689Z,12.03
2023-02-17T23:01:23.210Z,14.10
2023-02-17T23:03:54.397Z,14.73
2023-02-17T23:06:27.350Z,14.70
2023-02-17T23:08:54.680Z,15.20
2023-02-17T23:11:43.160Z,15.30
2023-02-17T23:14:10.577Z,15.30
2023-02-17T23:16:37.611Z,16.43
2023-02-17T23:19:09.503Z,16.60
2023-02-17T23:21:36.971Z,15.10
2023-02-17T23:24:04.081Z,15.97
2023-02-17T23:26:30.665Z,15.10
2023-02-17T23:28:57.202Z,17.13
2023-02-17T23:31:23.874Z,15.83
2023-02-17T23:33:50.547Z,15.40
2023-02-17T23:36:17.356Z,15.30
2023-02-17T23:38:43.920Z,15.53
2023-02-17T23:41:13.102Z,16.20
2023-02-17T23:43:39.682Z,17.00
2023-02-17T23:46:06.676Z,16.83
2023-02-17T23:48:33.649Z,18.10
2023-02-17T23:51:02.814Z,18.60
2023-02-17T23:53:29.833Z,16.43
2023-02-17T23:56:08.425Z,17.50
2023-02-17T23:58:35.492Z,16.57
